Time;durP1;ratioP1;P1;durP2;ratioP2;P2;SDS_P1;SDS_P2;PMS_P1;PMS_P2;Temp;Humidity;BMP_temperature;BMP_pressure;BME280_temperature;BME280_humidity;BME280_pressure;Samples;Min_cycle;Max_cycle;Signal;HPM_P1;HPM_P2
2021/03/03 00:00:54;;;;;;;6.87;5.30;;;1.90;99.90;;;2.40;32.39;95483.63;5053029;28;20198;-68
2021/03/03 00:03:19;;;;;;;13.53;5.13;;;1.90;99.90;;;2.40;32.90;95483.63;5084711;28;20203;-68
2021/03/03 00:05:45;;;;;;;10.80;5.43;;;1.90;99.90;;;2.39;33.33;95482.00;5050130;28;20603;-69
2021/03/03 00:08:11;;;;;;;7.73;5.30;;;1.90;99.90;;;2.30;33.01;95477.00;5052739;28;20174;-68
2021/03/03 00:10:38;;;;;;;7.47;5.00;;;1.80;99.90;;;2.24;33.60;95490.78;5072681;28;20610;-69
2021/03/03 00:13:04;;;;;;;10.67;5.50;;;1.80;99.90;;;2.23;33.42;95494.38;5063971;28;20207;-68
2021/03/03 00:15:30;;;;;;;8.67;5.47;;;1.80;99.90;;;2.21;33.16;95484.09;5040427;28;20593;-68
2021/03/03 00:17:56;;;;;;;9.33;5.77;;;1.70;99.90;;;2.28;33.23;95484.22;5082752;28;20656;-68
2021/03/03 00:20:22;;;;;;;9.23;5.43;;;1.80;99.90;;;2.32;33.13;95485.47;5082929;28;20192;-69
2021/03/03 00:22:48;;;;;;;8.07;5.57;;;1.80;99.90;;;2.27;33.14;95477.34;5065316;28;20652;-68
2021/03/03 00:25:13;;;;;;;9.83;5.67;;;1.80;99.90;;;2.26;34.09;95481.75;5040160;28;20223;-68
2021/03/03 00:27:40;;;;;;;7.60;4.83;;;1.80;99.90;;;2.32;33.41;95483.66;5065380;28;20241;-69
2021/03/03 00:30:06;;;;;;;8.03;5.80;;;1.90;99.90;;;2.34;33.92;95486.13;5067927;28;20202;-68
2021/03/03 00:32:32;;;;;;;7.80;5.27;;;1.90;99.90;;;2.34;34.35;95479.09;5050302;28;20548;-68
2021/03/03 00:34:58;;;;;;;9.67;5.77;;;1.90;99.90;;;2.32;33.55;95483.66;5050859;28;20187;-67
2021/03/03 00:37:24;;;;;;;6.57;5.03;;;1.90;99.90;;;2.34;34.56;95486.13;5082907;28;20244;-67
2021/03/03 00:39:50;;;;;;;9.63;5.40;;;2.00;99.90;;;2.38;33.74;95492.66;5050339;28;20216;-67
2021/03/03 00:42:16;;;;;;;7.47;5.70;;;2.00;99.90;;;2.42;33.90;95488.66;5059375;28;20653;-67
2021/03/03 00:44:42;;;;;;;9.03;5.37;;;2.00;99.90;;;2.40;34.13;95483.63;5051258;28;20189;-67
2021/03/03 00:47:07;;;;;;;8.53;5.70;;;2.00;99.90;;;2.50;34.79;95488.63;5075147;28;20277;-67
2021/03/03 00:49:33;;;;;;;10.70;5.60;;;2.00;99.90;;;2.50;34.35;95478.97;5031194;28;20656;-68
2021/03/03 00:51:59;;;;;;;6.67;5.10;;;2.00;99.90;;;2.61;34.29;95487.38;5039896;28;20514;-68
2021/03/03 00:54:25;;;;;;;6.13;4.90;;;2.10;99.90;;;2.48;34.25;95485.38;5049893;28;20242;-67
2021/03/03 00:56:51;;;;;;;7.20;5.47;;;2.00;99.90;;;2.49;34.13;95482.56;5016542;28;20649;-69
2021/03/03 00:59:17;;;;;;;7.47;5.40;;;2.00;99.90;;;2.53;34.04;95473.38;5050588;28;20699;-68
2021/03/03 01:01:45;;;;;;;7.13;5.30;;;2.10;99.90;;;2.50;34.37;95478.16;5050281;28;20190;-68
2021/03/03 01:04:11;;;;;;;6.40;5.10;;;2.00;99.90;;;2.49;34.61;95484.38;5050810;28;20167;-68
2021/03/03 01:06:37;;;;;;;8.03;5.30;;;2.00;99.90;;;2.47;34.67;95489.78;5066602;28;20265;-68
2021/03/03 01:09:06;;;;;;;7.00;5.17;;;2.00;99.90;;;2.37;34.51;95481.34;5047417;28;20182;-69
2021/03/03 01:11:32;;;;;;;6.03;5.00;;;1.90;99.90;;;2.29;34.52;95481.41;5065096;28;20262;-68
2021/03/03 01:13:59;;;;;;;7.30;4.97;;;1.90;99.90;;;2.30;35.07;95487.47;5051757;28;20860;-66
2021/03/03 01:16:25;;;;;;;7.70;5.00;;;1.80;99.90;;;2.30;35.16;95484.84;5046672;28;20182;-69
2021/03/03 01:18:51;;;;;;;7.97;5.43;;;1.70;99.90;;;2.25;35.41;95474.09;5050468;28;20225;-68
2021/03/03 01:21:19;;;;;;;7.47;4.83;;;1.80;99.90;;;2.23;34.59;95482.09;5066211;28;20207;-67
2021/03/03 01:23:45;;;;;;;7.90;5.53;;;1.70;99.90;;;2.21;34.92;95481.47;5084189;28;20162;-67
2021/03/03 01:26:11;;;;;;;8.20;5.60;;;1.70;99.90;;;2.13;34.73;95486.75;5065870;28;20212;-69
2021/03/03 01:28:37;;;;;;;10.10;5.80;;;1.70;99.90;;;2.17;35.12;95480.19;5050411;28;20185;-67
2021/03/03 01:31:03;;;;;;;9.73;6.17;;;1.70;99.90;;;2.14;35.52;95477.13;5060993;28;20219;-67
2021/03/03 01:33:31;;;;;;;7.60;5.50;;;1.70;99.90;;;2.18;35.34;95479.22;5030208;28;20203;-67
2021/03/03 01:35:57;;;;;;;10.97;6.50;;;1.70;99.90;;;2.17;35.95;95477.59;5049792;28;20181;-67
2021/03/03 01:38:24;;;;;;;9.20;5.93;;;1.60;99.90;;;2.06;35.21;95484.03;5050105;28;20877;-67
2021/03/03 01:40:53;;;;;;;8.80;6.17;;;1.60;99.90;;;2.11;35.68;95487.91;5077077;28;20198;-67
2021/03/03 01:43:19;;;;;;;9.90;5.57;;;1.60;99.90;;;2.03;35.13;95483.56;5066889;28;20182;-67
2021/03/03 01:45:49;;;;;;;9.83;6.30;;;1.60;99.90;;;2.00;35.39;95482.09;5065931;28;20182;-67
2021/03/03 01:48:15;;;;;;;9.07;5.83;;;1.60;99.90;;;2.07;35.23;95492.69;5063188;28;20187;-67
2021/03/03 01:50:41;;;;;;;8.13;5.93;;;1.60;99.90;;;2.05;35.75;95484.19;5049158;28;20231;-67
2021/03/03 01:53:08;;;;;;;7.80;5.63;;;1.60;99.90;;;2.11;35.91;95483.50;5033702;28;20345;-67
2021/03/03 01:55:35;;;;;;;9.97;6.03;;;1.60;99.90;;;2.06;35.98;95486.63;5074691;28;20182;-67
2021/03/03 01:58:05;;;;;;;7.30;5.30;;;1.60;99.90;;;2.02;36.38;95482.72;5049529;28;20186;-67
2021/03/03 02:00:32;;;;;;;10.30;5.90;;;1.50;99.90;;;2.03;35.65;95481.75;5048897;28;20261;-68
2021/03/03 02:02:58;;;;;;;7.57;5.60;;;1.60;99.90;;;2.01;36.42;95482.91;5048985;28;20648;-67
2021/03/03 02:05:25;;;;;;;8.73;5.33;;;1.50;99.90;;;2.14;36.32;95477.94;5007305;28;20175;-67
2021/03/03 02:08:04;;;;;;;9.33;5.90;;;1.60;99.90;;;2.01;35.85;95478.47;5062483;28;20164;-67
2021/03/03 02:10:44;;;;;;;7.47;5.20;;;1.60;99.90;;;1.93;36.17;95470.72;5062353;28;20669;-67
2021/03/03 02:13:28;;;;;;;6.87;5.33;;;1.50;99.90;;;2.01;36.21;95482.91;5049333;28;20179;-68
2021/03/03 02:15:57;;;;;;;9.07;5.43;;;1.50;99.90;;;1.95;36.45;95471.34;5032599;28;20670;-67
2021/03/03 02:18:24;;;;;;;6.97;5.50;;;1.50;99.90;;;1.91;36.44;95464.84;5049447;28;20196;-67
2021/03/03 02:21:36;;;;;;;7.70;5.73;;;1.40;99.90;;;1.82;36.46;95472.88;5032281;28;20187;-69
2021/03/03 02:24:18;;;;;;;8.93;5.60;;;1.30;99.90;;;1.91;36.33;95475.31;5068447;28;20688;-68
2021/03/03 02:26:46;;;;;;;7.13;5.20;;;1.40;99.90;;;1.96;36.91;95462.50;5034500;28;20307;-68
2021/03/03 02:29:19;;;;;;;6.87;5.40;;;1.40;99.90;;;1.99;36.38;95471.81;5057964;28;20193;-68
2021/03/03 02:31:49;;;;;;;7.13;5.07;;;1.40;99.90;;;2.01;36.71;95462.78;5031055;28;20775;-68
2021/03/03 02:34:19;;;;;;;9.00;5.70;;;1.40;99.90;;;1.90;36.57;95471.06;5036762;28;20667;-68
2021/03/03 02:36:47;;;;;;;7.50;5.00;;;1.40;99.90;;;1.85;37.19;95455.06;5035034;28;20715;-68
2021/03/03 02:39:20;;;;;;;7.20;5.20;;;1.40;99.90;;;1.79;37.40;95460.97;5076617;28;20609;-68
2021/03/03 02:41:48;;;;;;;7.53;5.00;;;1.30;99.90;;;1.75;36.95;95449.25;5048637;28;20564;-68
2021/03/03 02:44:14;;;;;;;6.80;5.20;;;1.30;99.90;;;1.66;37.14;95459.91;5065191;28;20193;-68
2021/03/03 02:46:49;;;;;;;9.03;5.77;;;1.20;99.90;;;1.65;36.94;95455.66;5023667;28;20640;-68
2021/03/03 02:49:20;;;;;;;8.97;5.53;;;1.20;99.90;;;1.77;37.35;95454.31;5057388;28;20259;-68
2021/03/03 02:51:46;;;;;;;7.63;5.23;;;1.30;99.90;;;1.69;37.22;95455.16;5050631;28;20239;-68
2021/03/03 02:54:16;;;;;;;9.63;6.10;;;1.20;99.90;;;1.69;36.90;95460.38;5051184;28;20238;-68
2021/03/03 02:56:43;;;;;;;10.57;5.83;;;1.20;99.90;;;1.71;37.65;95449.78;5070194;28;20177;-68
2021/03/03 02:59:37;;;;;;;8.93;6.00;;;1.20;99.90;;;1.68;36.89;95457.97;5038087;28;20213;-68
2021/03/03 03:02:07;;;;;;;9.07;5.60;;;1.20;99.90;;;1.69;37.60;95454.34;5023435;28;20198;-68
2021/03/03 03:04:42;;;;;;;11.53;6.07;;;1.20;99.90;;;1.64;37.60;95460.09;4976167;28;20225;-68
2021/03/03 03:07:15;;;;;;;9.57;6.07;;;1.20;99.90;;;1.62;38.00;95456.00;4978594;28;20310;-68
2021/03/03 03:09:43;;;;;;;11.03;6.07;;;1.20;99.90;;;1.61;37.67;95450.00;4992521;28;20188;-68
2021/03/03 03:12:10;;;;;;;7.57;5.53;;;1.10;99.90;;;1.59;37.78;95465.00;4994736;28;20286;-68
2021/03/03 03:14:37;;;;;;;8.40;5.60;;;1.10;99.90;;;1.63;37.88;95452.41;5021187;28;20193;-68
2021/03/03 03:17:09;;;;;;;7.70;5.10;;;1.10;99.90;;;1.47;37.97;95448.09;4992190;28;20238;-68
2021/03/03 03:19:38;;;;;;;10.87;5.23;;;1.00;99.90;;;1.46;38.18;95459.53;4977020;28;20200;-68
2021/03/03 03:22:13;;;;;;;7.60;5.23;;;1.00;99.90;;;1.43;37.81;95458.06;5001499;28;20195;-68
2021/03/03 03:24:42;;;;;;;6.40;4.93;;;1.00;99.90;;;1.50;38.28;95460.81;4996255;28;20186;-68
2021/03/03 03:27:11;;;;;;;7.33;5.10;;;1.00;99.90;;;1.37;37.84;95460.53;4980589;28;20208;-68
2021/03/03 03:29:40;;;;;;;7.97;5.13;;;0.90;99.90;;;1.40;38.21;95458.41;5017880;28;20201;-68
2021/03/03 03:32:08;;;;;;;9.73;5.07;;;0.90;99.90;;;1.41;38.53;95448.78;4994834;28;20714;-68
2021/03/03 03:34:36;;;;;;;5.57;4.30;;;0.90;99.90;;;1.33;38.37;95454.03;4985705;28;20193;-68
2021/03/03 03:37:03;;;;;;;7.77;5.20;;;0.90;99.90;;;1.45;38.41;95460.50;4975159;28;20603;-68
2021/03/03 03:39:29;;;;;;;6.37;4.57;;;0.90;99.90;;;1.48;38.01;95439.25;5020635;28;20189;-68
2021/03/03 03:41:54;;;;;;;6.33;4.80;;;1.00;99.90;;;1.41;38.29;95449.56;5051034;28;20190;-68
2021/03/03 03:44:21;;;;;;;6.07;4.67;;;1.00;99.90;;;1.36;38.49;95464.13;5072835;28;20193;-68
2021/03/03 03:46:48;;;;;;;6.87;4.53;;;0.90;99.90;;;1.39;38.87;95463.78;5072844;28;20189;-68
2021/03/03 03:49:16;;;;;;;7.67;4.83;;;0.90;99.90;;;1.47;38.39;95455.94;5051471;28;20193;-69
2021/03/03 03:51:42;;;;;;;7.50;4.93;;;1.00;99.90;;;1.42;38.23;95468.66;5076259;28;20214;-68
2021/03/03 03:54:09;;;;;;;8.97;4.77;;;1.00;99.90;;;1.41;38.88;95460.00;5031687;28;20300;-68
2021/03/03 03:56:36;;;;;;;6.80;4.63;;;1.00;99.90;;;1.41;38.66;95467.06;5039201;28;20656;-68
2021/03/03 03:59:02;;;;;;;8.63;5.10;;;0.90;99.90;;;1.40;38.80;95468.03;5034823;28;20585;-68
2021/03/03 04:01:28;;;;;;;11.30;5.33;;;0.90;99.90;;;1.46;38.52;95467.34;5032988;28;20194;-68
2021/03/03 04:03:53;;;;;;;9.17;5.20;;;0.90;99.90;;;1.46;39.14;95481.22;5051031;28;20186;-68
2021/03/03 04:06:19;;;;;;;9.63;5.03;;;0.90;99.90;;;1.45;38.97;95476.16;5061481;28;20190;-68
2021/03/03 04:08:45;;;;;;;8.03;4.67;;;0.90;99.90;;;1.42;39.06;95486.94;5049930;28;20166;-68
2021/03/03 04:11:11;;;;;;;11.67;5.43;;;0.90;99.90;;;1.50;38.98;95498.19;5051869;28;20192;-68
2021/03/03 04:13:37;;;;;;;9.37;4.70;;;0.90;99.90;;;1.53;38.85;95489.19;5051682;28;20251;-68
2021/03/03 04:16:08;;;;;;;8.83;4.70;;;1.00;99.90;;;1.57;39.33;95487.88;5051108;28;20182;-68
2021/03/03 04:18:34;;;;;;;7.23;4.73;;;1.00;99.90;;;1.72;39.01;95477.50;5052585;28;20176;-68
2021/03/03 04:21:01;;;;;;;7.93;5.00;;;1.10;99.90;;;1.63;39.19;95478.53;5050534;28;20197;-68
2021/03/03 04:23:29;;;;;;;5.67;4.23;;;1.10;99.90;;;1.61;38.98;95475.28;5048479;28;20187;-68
2021/03/03 04:25:55;;;;;;;5.47;3.90;;;1.10;99.90;;;1.54;39.64;95483.78;5051277;28;20339;-68
2021/03/03 04:28:21;;;;;;;8.17;4.67;;;1.10;99.90;;;1.63;39.62;95492.44;5031839;28;20752;-68
2021/03/03 04:30:46;;;;;;;8.33;4.67;;;1.10;99.90;;;1.58;39.34;95486.09;5035618;28;20221;-68
2021/03/03 04:33:13;;;;;;;8.83;4.43;;;1.10;99.90;;;1.57;39.54;95487.88;5065958;28;20193;-68
2021/03/03 04:35:39;;;;;;;7.63;4.83;;;1.10;99.90;;;1.57;39.28;95493.09;5051350;28;20194;-68
2021/03/03 04:38:06;;;;;;;7.73;4.80;;;1.00;99.90;;;1.53;39.82;95497.84;5051296;28;20188;-68
2021/03/03 04:40:32;;;;;;;11.17;5.13;;;1.00;99.90;;;1.62;39.57;95488.16;5048815;28;20188;-68
2021/03/03 04:42:58;;;;;;;6.83;4.67;;;1.10;99.90;;;1.60;40.30;95490.16;5034032;28;20200;-68
2021/03/03 04:45:26;;;;;;;6.33;4.53;;;1.10;99.90;;;1.56;39.45;95499.31;5050477;28;20196;-68
2021/03/03 04:47:52;;;;;;;6.07;4.77;;;1.00;99.90;;;1.56;39.87;95499.31;5042589;28;20710;-68
2021/03/03 04:50:18;;;;;;;9.40;4.57;;;1.10;99.90;;;1.52;40.19;95492.78;5030984;28;20207;-68
2021/03/03 04:52:44;;;;;;;7.90;5.50;;;1.00;99.90;;;1.67;39.98;95498.94;5045469;28;20191;-68
2021/03/03 04:55:11;;;;;;;8.77;4.87;;;1.10;99.90;;;1.73;40.33;95506.09;5051036;28;20564;-68
2021/03/03 04:57:38;;;;;;;8.33;5.57;;;1.20;99.90;;;1.64;39.89;95490.63;5070033;28;20220;-68
2021/03/03 05:00:08;;;;;;;6.30;4.97;;;1.10;99.90;;;1.77;40.30;95491.72;5034400;28;20212;-68
2021/03/03 05:02:34;;;;;;;8.40;4.93;;;1.20;99.90;;;1.72;40.34;95483.56;5053924;28;20273;-68
2021/03/03 05:05:02;;;;;;;9.53;4.83;;;1.20;99.90;;;1.67;40.50;95479.84;5038489;28;20219;-68
2021/03/03 05:07:28;;;;;;;7.27;5.13;;;1.20;99.90;;;1.57;40.52;95485.28;5030332;28;20197;-68
2021/03/03 05:09:54;;;;;;;6.23;4.53;;;1.10;99.90;;;1.49;40.32;95480.88;5060611;28;20262;-68
2021/03/03 05:12:20;;;;;;;6.27;4.50;;;1.20;99.90;;;1.60;40.57;95487.53;5050593;28;20177;-68
2021/03/03 05:14:46;;;;;;;6.17;4.33;;;1.10;99.90;;;1.69;40.40;95476.06;5033578;28;20195;-68
2021/03/03 05:17:11;;;;;;;8.50;4.53;;;1.20;99.90;;;1.66;40.21;95483.41;5050313;28;20510;-68
2021/03/03 05:19:37;;;;;;;6.00;4.60;;;1.20;99.90;;;1.62;41.23;95480.34;5051127;28;20209;-68
2021/03/03 05:22:03;;;;;;;9.47;4.27;;;1.10;99.90;;;1.70;40.12;95480.31;5043012;28;20243;-68
2021/03/03 05:24:29;;;;;;;6.63;4.00;;;1.20;99.90;;;1.62;40.13;95479.50;5030168;28;20170;-68
2021/03/03 05:26:55;;;;;;;7.07;4.70;;;1.10;99.90;;;1.58;40.84;95492.09;5040890;28;20181;-68
2021/03/03 05:29:21;;;;;;;9.03;5.67;;;1.10;99.90;;;1.59;40.68;95479.84;5066162;28;20522;-68
2021/03/03 05:31:47;;;;;;;8.87;4.73;;;1.10;99.90;;;1.70;40.61;95476.88;5033393;28;20222;-68
2021/03/03 05:34:13;;;;;;;9.00;4.40;;;1.10;99.90;;;1.69;41.38;95473.44;5012315;28;20275;-68
2021/03/03 05:36:41;;;;;;;8.20;4.67;;;1.20;99.90;;;1.70;41.11;95485.53;5029903;28;20202;-68
2021/03/03 05:39:07;;;;;;;5.60;4.13;;;1.20;99.90;;;1.61;40.46;95477.91;5064267;28;20187;-67
2021/03/03 05:41:34;;;;;;;4.90;3.83;;;1.10;99.90;;;1.56;41.29;95499.31;5048869;28;20668;-68
2021/03/03 05:44:00;;;;;;;5.37;4.07;;;1.00;99.90;;;1.63;40.85;95468.91;5065329;28;20177;-68
2021/03/03 05:46:29;;;;;;;9.43;4.43;;;1.10;99.90;;;1.73;41.23;95466.91;5066233;28;20214;-68
2021/03/03 05:49:01;;;;;;;7.20;4.10;;;1.20;99.90;;;1.73;41.50;95472.13;5062195;28;20290;-68
2021/03/03 05:51:28;;;;;;;10.27;3.93;;;1.10;99.90;;;1.75;41.13;95477.97;5048534;28;20211;-68
2021/03/03 05:53:55;;;;;;;5.67;4.00;;;1.20;99.90;;;1.68;40.82;95474.41;5049049;28;20190;-68
2021/03/03 05:56:23;;;;;;;5.33;3.77;;;1.20;99.90;;;1.65;40.96;95485.22;5065012;28;20185;-68
2021/03/03 05:58:49;;;;;;;7.43;4.20;;;1.10;99.90;;;1.74;41.74;95471.16;5049399;28;20311;-68
2021/03/03 06:01:16;;;;;;;7.17;4.30;;;1.20;99.90;;;1.85;41.47;95480.38;5047335;28;20198;-68
2021/03/03 06:03:42;;;;;;;5.67;4.03;;;1.30;99.90;;;1.87;41.07;95481.03;5043154;28;20178;-68
2021/03/03 06:06:12;;;;;;;8.07;3.93;;;1.30;99.90;;;1.96;41.20;95474.75;5064472;28;20683;-70
2021/03/03 06:08:38;;;;;;;5.20;3.60;;;1.40;99.90;;;1.97;41.34;95471.19;5049543;28;20194;-68
2021/03/03 06:11:05;;;;;;;10.70;4.03;;;1.40;99.90;;;1.94;41.26;95474.97;5045743;28;20686;-69
2021/03/03 06:13:32;;;;;;;4.47;3.97;;;1.40;99.90;;;1.89;41.48;95472.03;5044434;28;20197;-69
2021/03/03 06:16:03;;;;;;;11.17;3.90;;;1.40;99.90;;;1.85;41.76;95481.19;5030265;28;20181;-69
2021/03/03 06:18:34;;;;;;;18.10;4.50;;;1.30;99.90;;;1.73;41.90;95469.50;5048630;28;20187;-69
2021/03/03 06:21:00;;;;;;;9.43;3.97;;;1.30;99.90;;;1.79;41.59;95475.84;5063994;28;20179;-69
2021/03/03 06:23:31;;;;;;;8.50;3.97;;;1.30;99.90;;;1.87;41.97;95467.97;5048630;28;20192;-70
2021/03/03 06:25:57;;;;;;;12.63;4.10;;;1.30;99.90;;;1.92;41.95;95481.31;5077216;28;20192;-70
2021/03/03 06:28:44;;;;;;;8.57;4.17;;;1.40;99.90;;;2.03;41.37;95486.97;5041378;28;20168;-68
2021/03/03 06:31:43;;;;;;;7.40;3.90;;;1.50;99.90;;;2.03;42.08;95486.16;5040908;28;20582;-69
2021/03/03 06:34:26;;;;;;;19.83;4.57;;;1.60;99.90;;;2.16;41.60;95494.25;5062521;28;20715;-69
2021/03/03 06:37:06;;;;;;;11.47;4.23;;;1.60;99.90;;;2.31;42.23;95483.88;5040186;28;20218;-69
2021/03/03 06:39:36;;;;;;;9.13;4.07;;;1.70;99.90;;;2.28;42.60;95481.59;5044028;28;20216;-70
2021/03/03 06:42:05;;;;;;;8.93;4.40;;;1.70;99.90;;;2.39;42.44;95482.00;5032367;28;20177;-69
2021/03/03 06:44:48;;;;;;;12.60;4.17;;;1.80;99.90;;;2.49;42.64;95489.59;5019881;28;20644;-68
2021/03/03 06:47:16;;;;;;;6.60;3.97;;;1.90;99.90;;;2.61;41.68;95498.69;5044071;28;20706;-70
2021/03/03 06:49:43;;;;;;;8.00;3.73;;;2.00;99.90;;;2.78;42.08;95484.47;5015379;28;20230;-70
2021/03/03 06:52:10;;;;;;;5.63;3.30;;;2.20;99.90;;;2.88;41.95;95481.59;5034524;28;20527;-71
2021/03/03 06:54:36;;;;;;;6.47;3.13;;;2.20;99.90;;;2.85;42.10;95487.19;5022326;28;20188;-69
2021/03/03 06:57:10;;;;;;;6.85;3.78;;;2.20;99.90;;;3.00;41.98;95490.63;5020959;28;20414;-69
2021/03/03 06:59:36;;;;;;;6.80;4.23;;;2.30;99.90;;;3.05;42.00;95493.53;5034840;28;20649;-69
2021/03/03 07:02:16;;;;;;;8.40;3.70;;;2.40;99.90;;;3.23;42.80;95491.38;5035030;28;20264;-69
2021/03/03 07:04:48;;;;;;;5.53;3.47;;;2.60;99.90;;;3.26;42.65;95491.00;5015102;28;20185;-69
2021/03/03 07:07:21;;;;;;;6.73;3.40;;;2.70;99.90;;;3.43;42.10;95484.59;5016362;28;20680;-69
2021/03/03 07:09:53;;;;;;;4.27;3.43;;;2.80;99.90;;;3.48;42.79;95499.78;5040740;28;20204;-69
2021/03/03 07:12:32;;;;;;;5.87;4.00;;;2.90;99.90;;;3.66;43.12;95502.81;5052041;28;20166;-69
2021/03/03 07:15:09;;;;;;;8.17;4.57;;;3.10;99.90;;;3.72;42.72;95510.00;5052668;28;20206;-70
2021/03/03 07:17:41;;;;;;;8.00;3.90;;;3.20;99.90;;;3.83;42.65;95503.47;5078771;28;20668;-69
2021/03/03 07:20:17;;;;;;;6.83;4.10;;;3.20;99.90;;;3.99;42.39;95492.75;5057394;28;20188;-69
2021/03/03 07:22:52;;;;;;;8.50;4.40;;;3.40;99.90;;;4.07;42.62;95498.69;5050113;28;20185;-69
2021/03/03 07:25:20;;;;;;;7.00;3.53;;;3.50;99.90;;;4.26;42.46;95504.34;5051349;28;20174;-71
2021/03/03 07:27:50;;;;;;;7.83;3.80;;;3.70;99.90;;;4.31;43.47;95501.97;5048277;28;20182;-71
2021/03/03 07:30:26;;;;;;;9.80;3.67;;;3.80;99.90;;;4.47;43.37;95522.72;5034815;28;20316;-72
2021/03/03 07:32:55;;;;;;;8.73;4.23;;;3.90;99.90;;;4.57;42.96;95513.53;5051164;28;20684;-71
2021/03/03 07:35:20;;;;;;;8.47;3.53;;;4.10;99.90;;;4.56;43.16;95519.00;5044067;28;20259;-69
2021/03/03 07:38:06;;;;;;;7.77;4.07;;;4.10;99.90;;;4.71;42.86;95530.25;5057198;28;20633;-69
2021/03/03 07:40:32;;;;;;;6.23;3.60;;;4.20;99.90;;;4.87;43.14;95521.31;5032333;28;20181;-71
2021/03/03 07:43:01;;;;;;;9.47;4.40;;;4.40;99.90;;;4.97;43.18;95519.16;5067634;28;20222;-70
2021/03/03 07:45:36;;;;;;;9.50;4.27;;;4.50;99.90;;;5.12;43.20;95523.31;5051077;28;20184;-69
2021/03/03 07:48:06;;;;;;;9.83;4.50;;;4.70;99.90;;;5.22;43.82;95525.63;5043955;28;20259;-69
2021/03/03 07:50:32;;;;;;;11.87;4.97;;;4.80;99.90;;;5.41;43.23;95529.38;5051598;28;20271;-68
2021/03/03 07:52:59;;;;;;;7.63;4.30;;;5.00;99.90;;;5.45;43.76;95520.91;5049108;28;20183;-72
2021/03/03 07:55:25;;;;;;;8.90;4.10;;;5.10;99.90;;;5.55;43.70;95525.84;5047915;28;20185;-68
2021/03/03 07:57:54;;;;;;;7.17;4.13;;;5.10;99.90;;;5.76;43.51;95517.88;5029833;28;20186;-69
2021/03/03 08:00:25;;;;;;;6.40;4.40;;;5.30;99.90;;;5.85;43.54;95524.59;5050354;28;20255;-69
2021/03/03 08:02:54;;;;;;;8.63;4.23;;;5.40;99.90;;;5.97;43.55;95502.03;5038617;28;20552;-70
2021/03/03 08:05:31;;;;;;;7.97;4.20;;;5.50;99.90;;;6.12;43.90;95507.94;5032033;28;20180;-69
2021/03/03 08:08:30;;;;;;;5.50;3.70;;;5.60;99.90;;;6.39;43.37;95508.81;5051856;28;20182;-71
2021/03/03 08:11:02;;;;;;;8.63;4.50;;;5.80;99.90;;;6.48;43.97;95504.22;5067369;28;20206;-70
2021/03/03 08:13:32;;;;;;;7.10;4.27;;;6.00;99.90;;;6.53;43.73;95497.31;5071564;28;20500;-70
2021/03/03 08:16:03;;;;;;;31.60;5.80;;;6.10;99.90;;;6.71;44.00;95492.25;5036308;28;20180;-74
2021/03/03 08:18:48;;;;;;;11.67;5.33;;;6.30;99.90;;;6.95;43.92;95495.34;5044467;28;20268;-74
2021/03/03 08:21:16;;;;;;;11.27;5.17;;;6.50;99.90;;;7.01;43.75;95476.09;5046567;28;20181;-75
2021/03/03 08:23:46;;;;;;;12.70;5.53;;;6.70;99.90;;;7.11;43.53;95484.38;5062715;28;20188;-71
2021/03/03 08:26:17;;;;;;;14.00;6.03;;;6.80;99.90;;;7.11;44.16;95479.94;5033507;28;21776;-72
2021/03/03 08:28:44;;;;;;;14.63;5.57;;;6.80;99.90;;;7.34;44.56;95499.78;5049368;28;20180;-70
2021/03/03 08:31:10;;;;;;;10.57;5.63;;;7.00;99.90;;;7.48;44.13;95502.19;5049446;28;20222;-71
2021/03/03 08:33:42;;;;;;;11.47;5.63;;;7.20;99.90;;;7.55;44.13;95494.28;5054817;28;20183;-71
2021/03/03 08:36:19;;;;;;;11.37;5.10;;;7.30;99.90;;;7.51;43.68;95490.41;5035102;28;20629;-70
2021/03/03 08:38:54;;;;;;;13.27;5.43;;;7.30;99.90;;;7.45;43.91;95504.44;5050140;28;20267;-71
2021/03/03 08:41:30;;;;;;;11.20;6.10;;;7.20;99.90;;;7.78;44.31;95514.91;5051534;28;20207;-71
2021/03/03 08:44:05;;;;;;;13.00;5.83;;;7.30;99.90;;;8.03;44.50;95511.38;5064372;28;20191;-71
2021/03/03 08:46:33;;;;;;;19.50;6.23;;;7.60;99.90;;;8.30;43.98;95501.53;5049675;28;20176;-70
2021/03/03 08:48:59;;;;;;;9.17;5.57;;;7.90;99.90;;;8.50;43.93;95496.16;5048086;28;20187;-70
2021/03/03 08:51:25;;;;;;;7.47;5.23;;;8.10;99.90;;;8.72;43.94;95497.47;5053617;28;20191;-71
2021/03/03 08:53:55;;;;;;;9.87;6.13;;;8.30;99.90;;;8.90;44.16;95502.81;5050822;28;20203;-71
2021/03/03 08:56:40;;;;;;;9.67;6.93;;;8.40;99.90;;;9.16;44.47;95505.28;5044383;28;20530;-71
2021/03/03 08:59:14;;;;;;;9.97;5.83;;;8.70;99.90;;;9.10;44.05;95503.47;5039875;28;20263;-69
2021/03/03 09:02:18;;;;;;;14.83;6.30;;;8.80;99.90;;;9.16;44.73;95501.81;5068103;28;20179;-71
2021/03/03 09:04:51;;;;;;;7.47;5.67;;;8.90;99.90;;;9.01;44.08;95498.66;5042946;28;20179;-69
2021/03/03 09:07:23;;;;;;;12.33;6.30;;;8.70;99.90;;;9.33;44.58;95504.72;5061530;28;20216;-69
2021/03/03 09:10:00;;;;;;;15.30;6.70;;;8.90;99.90;;;9.73;44.03;95512.09;5063995;28;20181;-70
2021/03/03 09:12:30;;;;;;;15.10;6.53;;;9.20;99.90;;;10.09;44.25;95511.28;5028763;28;20197;-72
2021/03/03 09:15:07;;;;;;;9.67;6.37;;;9.60;99.90;;;10.20;44.36;95494.69;5072838;28;20512;-70
2021/03/03 09:17:37;;;;;;;9.90;6.97;;;9.80;99.90;;;10.42;44.59;95505.59;5039984;28;20654;-69
2021/03/03 09:20:05;;;;;;;8.90;6.93;;;10.00;99.90;;;10.66;44.36;95487.94;5045609;28;20173;-70
2021/03/03 09:22:43;;;;;;;14.80;6.83;;;10.20;99.90;;;10.67;44.34;95498.34;5059506;28;20177;-70
2021/03/03 09:25:22;;;;;;;11.03;7.07;;;10.30;99.90;;;10.88;44.33;95493.56;5061339;28;20184;-70
2021/03/03 09:27:57;;;;;;;8.73;6.87;;;10.50;99.90;;;11.02;44.49;95498.44;5068374;28;20207;-71
2021/03/03 09:30:38;;;;;;;9.57;6.60;;;10.70;99.90;;;11.19;44.55;95483.47;5049442;28;20720;-70
2021/03/03 09:33:07;;;;;;;11.47;6.70;;;10.90;99.90;;;11.40;44.75;95482.09;5059597;28;20623;-70
2021/03/03 09:35:33;;;;;;;12.53;5.97;;;11.10;99.90;;;11.60;44.59;95493.19;5041831;28;20193;-69
2021/03/03 09:38:00;;;;;;;11.17;6.50;;;11.30;99.90;;;11.83;44.65;95490.56;5061966;28;20185;-69
2021/03/03 09:40:37;;;;;;;9.30;5.10;;;11.50;99.90;;;11.63;44.37;95481.28;5062452;28;20745;-68
2021/03/03 09:43:06;;;;;;;11.00;5.83;;;11.50;99.90;;;11.70;44.31;95481.97;5044712;28;20254;-69
2021/03/03 09:45:34;;;;;;;7.03;5.80;;;11.60;99.50;;;12.11;44.25;95481.84;5060281;28;20193;-69
2021/03/03 09:48:00;;;;;;;11.57;6.30;;;11.90;99.90;;;12.39;44.35;95481.06;5037317;28;20916;-69
2021/03/03 09:50:33;;;;;;;9.17;5.80;;;12.10;99.90;;;12.45;44.32;95474.00;5046691;28;20586;-69
2021/03/03 09:52:59;;;;;;;9.10;5.67;;;12.30;97.70;;;12.69;44.33;95459.56;5063315;28;20179;-69
2021/03/03 09:55:35;;;;;;;8.40;5.70;;;12.50;95.80;;;12.98;44.36;95482.44;5042243;28;20804;-69
2021/03/03 09:58:02;;;;;;;19.27;7.67;;;12.70;95.30;;;13.32;43.98;95465.47;5038885;28;20176;-71
2021/03/03 10:00:34;;;;;;;22.77;8.00;;;13.00;96.10;;;13.58;44.32;95477.28;5048393;28;20249;-70
2021/03/03 10:03:06;;;;;;;12.37;7.87;;;13.30;96.40;;;13.72;44.52;95473.25;5054064;28;20190;-70
2021/03/03 10:05:34;;;;;;;18.77;7.70;;;13.50;95.80;;;13.86;43.66;95465.72;5023848;28;20179;-70
2021/03/03 10:08:13;;;;;;;13.20;7.43;;;13.70;95.70;;;14.12;44.41;95483.66;5046646;28;20191;-71
2021/03/03 10:10:54;;;;;;;14.60;8.90;;;13.90;95.80;;;13.99;43.93;95480.53;5058400;28;20192;-71
2021/03/03 10:13:22;;;;;;;15.00;8.83;;;13.90;94.80;;;14.22;44.29;95465.13;5040580;28;20218;-72
2021/03/03 10:15:49;;;;;;;12.87;8.60;;;14.10;95.20;;;14.33;44.00;95474.88;5025245;28;20218;-71
2021/03/03 10:18:17;;;;;;;12.30;7.97;;;14.20;95.40;;;14.54;43.92;95473.25;5051828;28;20604;-72
2021/03/03 10:20:56;;;;;;;8.43;7.10;;;14.40;95.20;;;14.66;43.96;95486.44;5031861;28;20191;-72
2021/03/03 10:23:30;;;;;;;8.90;7.50;;;14.60;95.00;;;14.71;43.79;95473.97;5047609;28;20220;-69
2021/03/03 10:26:05;;;;;;;11.27;7.73;;;14.70;94.90;;;14.80;44.09;95463.66;5048056;28;20187;-71
2021/03/03 10:28:32;;;;;;;10.23;7.23;;;14.80;95.50;;;14.91;44.16;95459.22;5026874;28;20176;-70
2021/03/03 10:31:02;;;;;;;9.03;6.70;;;14.90;95.00;;;14.99;43.78;95462.22;5045260;28;20682;-70
2021/03/03 10:33:32;;;;;;;10.63;7.90;;;15.00;92.90;;;15.20;44.00;95474.72;5045848;28;20187;-71
2021/03/03 10:36:01;;;;;;;9.30;7.60;;;15.20;91.60;;;15.33;43.96;95470.81;5070606;28;20175;-72
2021/03/03 10:38:28;;;;;;;9.73;7.43;;;15.30;91.30;;;15.25;43.68;95457.91;5031514;28;20187;-72
2021/03/03 10:40:58;;;;;;;9.90;8.10;;;15.30;91.30;;;15.39;43.40;95457.22;5030150;28;20210;-70